FDX9900 EBLG-EIDW
Flight info
| Callsign | FDX9900 |
|---|---|
| Flight time | N/A |
| Altitude | 38000 |
| Route | BUB L608 DENUT L610 KOPUL DCT SABER DCT SIVDA DCT RODOL UL28 LELDO M145 BAGSO BAGSO3R |
| Aircraft | B738/M-SDE2E3FGHIRWXY/LB1 |
Departure
| Time | N/A |
|---|---|
| Airport | Liège Airport (EBLG) |
Arrival
| Time | 2026-04-30 18:19 |
|---|---|
| Airport | Dublin Airport (EIDW) |
| Time | Latitude | Longitude | Altitude | Speed | Heading |
|---|---|---|---|---|---|
| 2026-04-30 18:18 | 53.42418 | -6.26199 | 231 ft | 0 kts | 186° |
| 2026-04-30 18:35 | 53.42419 | -6.26199 | 231 ft | 0 kts | 186° |
| 2026-04-30 18:45 | 53.42421 | -6.26198 | 231 ft | 2 kts | 186° |
| 2026-04-30 18:46 | 53.42446 | -6.26194 | 232 ft | 4 kts | 185° |
| 2026-04-30 18:46 | 53.42471 | -6.26190 | 235 ft | 1 kts | 185° |
| 2026-04-30 18:46 | 53.42494 | -6.26187 | 232 ft | 3 kts | 184° |
| 2026-04-30 18:46 | 53.42509 | -6.26184 | 231 ft | 4 kts | 120° |
| 2026-04-30 18:47 | 53.42514 | -6.26219 | 233 ft | 4 kts | 97° |
| 2026-04-30 18:47 | 53.42518 | -6.26262 | 234 ft | 2 kts | 94° |
| 2026-04-30 18:47 | 53.42519 | -6.26266 | 234 ft | 1 kts | 94° |
| 2026-04-30 18:49 | 53.42518 | -6.26258 | 234 ft | 2 kts | 97° |
| 2026-04-30 18:49 | 53.42513 | -6.26201 | 235 ft | 8 kts | 95° |
| 2026-04-30 18:49 | 53.42506 | -6.26068 | 231 ft | 15 kts | 95° |
| 2026-04-30 18:50 | 53.42479 | -6.25888 | 231 ft | 15 kts | 114° |
| 2026-04-30 18:50 | 53.42504 | -6.25750 | 231 ft | 12 kts | 44° |
| 2026-04-30 18:50 | 53.42557 | -6.25659 | 231 ft | 10 kts | 46° |
| 2026-04-30 18:50 | 53.42606 | -6.25575 | 230 ft | 10 kts | 46° |
| 2026-04-30 18:51 | 53.42671 | -6.25464 | 227 ft | 17 kts | 45° |
| 2026-04-30 18:51 | 53.42760 | -6.25312 | 231 ft | 19 kts | 43° |
| 2026-04-30 18:51 | 53.42887 | -6.25311 | 233 ft | 21 kts | 336° |
| 2026-04-30 18:51 | 53.43040 | -6.25420 | 231 ft | 26 kts | 337° |
| 2026-04-30 18:52 | 53.43220 | -6.25551 | 233 ft | 29 kts | 336° |
| 2026-04-30 18:52 | 53.43394 | -6.25656 | 232 ft | 19 kts | 11° |
| 2026-04-30 18:52 | 53.43411 | -6.25599 | 231 ft | 8 kts | 93° |
| 2026-04-30 18:52 | 53.43401 | -6.25432 | 234 ft | 20 kts | 94° |
| 2026-04-30 18:53 | 53.43388 | -6.25171 | 231 ft | 22 kts | 95° |
| 2026-04-30 18:53 | 53.43376 | -6.24930 | 233 ft | 20 kts | 96° |
| 2026-04-30 18:53 | 53.43362 | -6.24712 | 234 ft | 18 kts | 95° |
| 2026-04-30 18:53 | 53.43351 | -6.24511 | 231 ft | 17 kts | 95° |
| 2026-04-30 18:54 | 53.43340 | -6.24328 | 231 ft | 15 kts | 96° |
| 2026-04-30 18:54 | 53.43330 | -6.24159 | 231 ft | 14 kts | 96° |
| 2026-04-30 18:54 | 53.43321 | -6.24005 | 231 ft | 13 kts | 96° |
| 2026-04-30 18:54 | 53.43342 | -6.23886 | 231 ft | 11 kts | 40° |
| 2026-04-30 18:55 | 53.43422 | -6.23855 | 229 ft | 14 kts | 357° |
| 2026-04-30 18:55 | 53.43488 | -6.23901 | 228 ft | 0 kts | 275° |
| 2026-04-30 18:56 | 53.43488 | -6.23900 | 228 ft | 0 kts | 275° |
| 2026-04-30 18:57 | 53.43522 | -6.24493 | 233 ft | 89 kts | 276° |
| 2026-04-30 18:57 | 53.43608 | -6.25934 | 232 ft | 157 kts | 269° |
| 2026-04-30 18:57 | 53.43684 | -6.28053 | 627 ft | 189 kts | 277° |
| 2026-04-30 18:58 | 53.43983 | -6.31665 | 1276 ft | 223 kts | 275° |
| 2026-04-30 18:58 | 53.44428 | -6.34443 | 1860 ft | 268 kts | 297° |
| 2026-04-30 18:58 | 53.45777 | -6.36700 | 2912 ft | 284 kts | 331° |
| 2026-04-30 18:59 | 53.49610 | -6.36914 | 4657 ft | 286 kts | 21° |
| 2026-04-30 19:00 | 53.52758 | -6.29934 | 5092 ft | 254 kts | 95° |
| 2026-04-30 19:00 | 53.52691 | -6.26964 | 5209 ft | 254 kts | 98° |
| 2026-04-30 19:00 | 53.52502 | -6.20919 | 6792 ft | 265 kts | 97° |